Wetmore, Michigan
Current Conditions -  °F | °C
As of 11:35 PM on Monday 22 Dec 2014 (Local Time) from KISQ Reporting Station
Light Snow Light Snow  
Wind Chill: 22°   Ceiling: 1000
Heat Index: 32°   Visibility: 2.5mi
Dew Point: 31°   Wind: 14mph
Humidity: 96%   Direction: 100°E
Pressure: 29.89"   Gusts: 21mph
Location:  46.38°N, 86.62°W
Report Text: KISQ 230435Z AUTO 10012G18KT 2 1/2SM -SN BKN010 OVC013 00/00 A2989 RMK AO2 T00001005
Loading
Personal Weather Stations






























Interactive Weather Map New forecast layout! Learn more

10-Day Weather Forecast

Advertisements
Track Severe Weather on mobile